Time;durP1;ratioP1;P1;durP2;ratioP2;P2;SDS_P1;SDS_P2;PMS_P1;PMS_P2;Temp;Humidity;BMP_temperature;BMP_pressure;BME280_temperature;BME280_humidity;BME280_pressure;Samples;Min_cycle;Max_cycle;Signal;HPM_P1;HPM_P2
2022/01/11 00:01:42;;;;;;;167.00;39.20;;;;;;;-3.20;100.00;101580.81;5013531;28;20018;-83
2022/01/11 00:04:12;;;;;;;166.18;40.95;;;;;;;-3.11;100.00;101572.50;5015453;28;20026;-83
2022/01/11 00:06:47;;;;;;;92.85;38.55;;;;;;;-3.00;100.00;101585.19;5015016;28;20017;-83
2022/01/11 00:09:32;;;;;;;130.48;39.63;;;;;;;-2.95;100.00;101586.31;5016231;28;20077;-83
2022/01/11 00:11:58;;;;;;;170.90;40.58;;;;;;;-2.86;100.00;101581.50;5014982;28;20504;-83
2022/01/11 00:14:24;;;;;;;195.35;47.90;;;;;;;-2.68;100.00;101585.81;5016675;28;20034;-84
2022/01/11 00:16:49;;;;;;;227.02;53.80;;;;;;;-2.51;100.00;101580.44;5017453;28;20029;-83
2022/01/11 00:19:15;;;;;;;159.27;44.20;;;;;;;-2.45;100.00;101572.88;5017016;28;20084;-83
2022/01/11 00:21:46;;;;;;;139.60;42.85;;;;;;;-2.45;100.00;101599.03;5015668;28;20021;-84
2022/01/11 00:24:32;;;;;;;130.50;42.28;;;;;;;-2.44;100.00;101579.88;5015844;28;20387;-84
2022/01/11 00:27:02;;;;;;;167.20;45.15;;;;;;;-2.41;100.00;101582.63;5017363;28;20475;-84
2022/01/11 00:29:29;;;;;;;158.38;44.13;;;;;;;-2.59;100.00;101585.31;5017654;28;20478;-83
2022/01/11 00:31:58;;;;;;;118.00;36.22;;;;;;;-2.74;100.00;101585.50;5016367;28;20033;-83
2022/01/11 00:34:25;;;;;;;98.20;34.50;;;;;;;-3.21;100.00;101588.56;5018557;28;20026;-83
2022/01/11 00:36:51;;;;;;;77.82;32.15;;;;;;;-3.07;100.00;101587.53;5014852;28;20114;-83
2022/01/11 00:39:16;;;;;;;66.85;31.90;;;;;;;-3.12;100.00;101586.41;5013750;28;20057;-83
2022/01/11 00:41:44;;;;;;;83.50;33.85;;;;;;;-3.13;100.00;101597.69;5016053;28;20049;-83
2022/01/11 00:44:11;;;;;;;91.45;35.35;;;;;;;-3.17;100.00;101580.09;5017197;28;20030;-83
2022/01/11 00:46:36;;;;;;;78.75;33.63;;;;;;;-3.17;100.00;101582.69;5018042;28;20114;-83
2022/01/11 00:49:03;;;;;;;60.88;32.15;;;;;;;-3.16;100.00;101592.31;5018071;28;20045;-83
2022/01/11 00:51:28;;;;;;;80.85;34.17;;;;;;;-3.11;100.00;101584.69;5018397;28;20496;-83
2022/01/11 00:53:53;;;;;;;76.85;33.65;;;;;;;-3.07;100.00;101591.84;5016461;28;20080;-83
2022/01/11 00:56:19;;;;;;;66.40;31.45;;;;;;;-3.08;100.00;101584.81;5014227;28;20022;-84
2022/01/11 00:58:44;;;;;;;57.70;29.95;;;;;;;-3.05;100.00;101590.22;5013850;28;20044;-84
2022/01/11 01:01:10;;;;;;;128.23;33.63;;;;;;;-3.26;100.00;101602.31;5013356;28;20484;-83
2022/01/11 01:03:35;;;;;;;97.07;31.63;;;;;;;-3.39;100.00;101599.94;5013042;28;20038;-83
2022/01/11 01:06:01;;;;;;;90.40;31.85;;;;;;;-3.38;100.00;101601.72;5014203;28;20568;-83
2022/01/11 01:08:26;;;;;;;90.57;32.33;;;;;;;-3.51;100.00;101601.13;5013785;28;20097;-83
2022/01/11 01:10:51;;;;;;;89.60;31.83;;;;;;;-3.55;100.00;101601.78;5013918;28;20441;-83
2022/01/11 01:13:21;;;;;;;94.00;34.55;;;;;;;-3.57;100.00;101599.91;5014346;28;20026;-84
2022/01/11 01:15:49;;;;;;;127.55;35.53;;;;;;;-3.59;100.00;101607.69;5012114;28;20029;-83
2022/01/11 01:18:16;;;;;;;123.45;34.40;;;;;;;-3.59;100.00;101602.47;5012275;28;20087;-84
2022/01/11 01:20:44;;;;;;;90.93;34.95;;;;;;;-3.56;100.00;101606.94;5013810;28;20030;-83
2022/01/11 01:23:10;;;;;;;89.30;33.65;;;;;;;-3.54;100.00;101610.53;5012255;28;20424;-83
2022/01/11 01:25:35;;;;;;;90.82;33.90;;;;;;;-3.53;100.00;101610.59;5013310;28;20046;-83
2022/01/11 01:28:00;;;;;;;60.90;30.92;;;;;;;-3.50;100.00;101610.75;5016884;28;20030;-83
2022/01/11 01:30:26;;;;;;;77.03;32.00;;;;;;;-3.48;100.00;101621.28;5015901;28;20475;-83
2022/01/11 01:32:53;;;;;;;62.38;30.38;;;;;;;-3.45;100.00;101620.53;5015905;28;20024;-83
2022/01/11 01:35:21;;;;;;;105.28;32.35;;;;;;;-3.66;100.00;101626.47;5016019;28;20030;-83
2022/01/11 01:37:47;;;;;;;79.32;29.30;;;;;;;-3.75;100.00;101638.25;5017167;28;20030;-83
2022/01/11 01:40:13;;;;;;;59.03;30.48;;;;;;;-3.72;100.00;101634.88;5016871;28;20101;-83
2022/01/11 01:42:39;;;;;;;60.58;31.10;;;;;;;-3.63;100.00;101639.66;5015836;28;20014;-83
2022/01/11 01:45:05;;;;;;;75.32;30.67;;;;;;;-3.72;100.00;101638.41;5017260;28;20052;-83
2022/01/11 01:47:31;;;;;;;71.82;30.27;;;;;;;-3.99;100.00;101638.75;5016944;28;20475;-84
2022/01/11 01:49:57;;;;;;;52.85;30.23;;;;;;;-4.03;100.00;101642.03;5015261;28;20112;-82
2022/01/11 01:52:25;;;;;;;59.58;31.40;;;;;;;-3.86;100.00;101647.22;5016432;28;20022;-83
2022/01/11 01:54:52;;;;;;;66.15;32.25;;;;;;;-3.84;100.00;101649.09;5017463;28;20033;-83
2022/01/11 01:57:17;;;;;;;69.97;32.08;;;;;;;-3.96;100.00;101649.38;5017309;28;20034;-83
2022/01/11 01:59:43;;;;;;;66.07;31.98;;;;;;;-4.15;100.00;101651.00;5017438;28;20390;-83
2022/01/11 02:02:10;;;;;;;73.30;30.67;;;;;;;-4.16;100.00;101656.16;5015567;28;20391;-83
2022/01/11 02:04:35;;;;;;;60.90;30.48;;;;;;;-4.17;100.00;101657.88;5016075;28;20033;-83
2022/01/11 02:07:00;;;;;;;66.45;32.08;;;;;;;-4.04;100.00;101650.69;5016049;28;20033;-82
2022/01/11 02:09:26;;;;;;;68.90;30.23;;;;;;;-4.03;100.00;101662.91;5015483;28;20030;-83
2022/01/11 02:11:51;;;;;;;175.52;34.92;;;;;;;-4.17;100.00;101660.47;5015137;28;20018;-83
2022/01/11 02:14:16;;;;;;;95.80;32.45;;;;;;;-4.10;100.00;101660.81;5016165;28;20088;-83
2022/01/11 02:16:42;;;;;;;94.90;29.90;;;;;;;-4.09;100.00;101654.75;5016090;28;20076;-83
2022/01/11 02:19:08;;;;;;;67.85;29.45;;;;;;;-4.05;100.00;101657.63;5016919;28;20108;-83
2022/01/11 02:21:33;;;;;;;91.00;31.17;;;;;;;-4.09;100.00;101663.50;5016410;28;20121;-83
2022/01/11 02:23:59;;;;;;;77.68;31.35;;;;;;;-4.06;100.00;101662.75;5017917;28;20383;-83
2022/01/11 02:26:25;;;;;;;64.90;29.52;;;;;;;-4.06;100.00;101665.38;5016455;28;20033;-83
2022/01/11 02:28:51;;;;;;;109.53;32.95;;;;;;;-4.09;100.00;101665.19;5016235;28;20030;-83
2022/01/11 02:31:17;;;;;;;75.18;31.00;;;;;;;-4.10;100.00;101671.25;5015205;28;20100;-83
2022/01/11 02:33:46;;;;;;;91.88;32.08;;;;;;;-4.08;100.00;101667.00;5017430;28;20331;-82
2022/01/11 02:36:18;;;;;;;113.82;32.75;;;;;;;-4.19;100.00;101677.75;5017020;28;20026;-83
2022/01/11 02:38:46;;;;;;;76.40;31.45;;;;;;;-4.25;100.00;101677.41;5015122;28;20030;-82
2022/01/11 02:41:11;;;;;;;73.47;33.08;;;;;;;-4.15;100.00;101679.72;5016602;28;20368;-83
2022/01/11 02:43:41;;;;;;;57.95;29.60;;;;;;;-4.16;100.00;101677.94;5015150;28;20021;-83
2022/01/11 02:46:06;;;;;;;57.90;29.98;;;;;;;-4.09;100.00;101675.63;5014789;28;20061;-83
2022/01/11 02:48:31;;;;;;;68.28;31.40;;;;;;;-4.11;100.00;101679.88;5014704;28;20453;-83
2022/01/11 02:50:57;;;;;;;70.10;31.08;;;;;;;-4.17;100.00;101690.88;5017021;28;20030;-83
2022/01/11 02:53:22;;;;;;;63.97;30.23;;;;;;;-4.16;100.00;101687.47;5015518;28;20534;-82
2022/01/11 02:55:47;;;;;;;58.35;28.58;;;;;;;-4.16;100.00;101688.38;5016562;28;20076;-82
2022/01/11 02:58:13;;;;;;;99.68;30.13;;;;;;;-4.21;100.00;101684.63;5015039;28;20025;-83
2022/01/11 03:00:40;;;;;;;94.05;31.48;;;;;;;-4.21;100.00;101684.63;5015401;28;20029;-83
2022/01/11 03:03:14;;;;;;;114.55;32.85;;;;;;;-4.19;100.00;101682.06;5014338;28;20052;-83
2022/01/11 03:05:47;;;;;;;82.20;30.20;;;;;;;-4.19;100.00;101672.53;5016158;28;20025;-83
2022/01/11 03:08:14;;;;;;;;;;;;;;;-4.17;100.00;101670.91;5015456;28;20026;-84
2022/01/11 03:10:39;;;;;;;109.78;28.67;;;;;;;-4.28;100.00;101672.06;5016969;28;20389;-83
2022/01/11 03:13:06;;;;;;;71.90;27.77;;;;;;;-4.23;100.00;101675.81;5016558;28;20033;-83
2022/01/11 03:15:32;;;;;;;122.60;33.38;;;;;;;-4.28;100.00;101677.28;5015350;28;20030;-83
2022/01/11 03:17:58;;;;;;;97.93;32.95;;;;;;;-4.30;100.00;101685.00;5014518;28;20030;-82
2022/01/11 03:20:23;;;;;;;68.57;31.27;;;;;;;-4.22;100.00;101681.91;5017324;28;20104;-83
2022/01/11 03:22:49;;;;;;;113.10;32.95;;;;;;;-4.18;100.00;101691.72;5014932;28;20029;-82
2022/01/11 03:25:16;;;;;;;82.35;28.92;;;;;;;-4.14;100.00;101691.03;5015193;28;20038;-83
2022/01/11 03:27:42;;;;;;;83.53;27.80;;;;;;;-4.15;100.00;101691.88;5016210;28;20053;-83
2022/01/11 03:30:10;;;;;;;91.63;28.75;;;;;;;-4.18;100.00;101696.94;5016403;28;20033;-83
2022/01/11 03:32:35;;;;;;;231.18;36.33;;;;;;;-4.20;100.00;101689.00;5014838;28;20436;-83
2022/01/11 03:35:01;;;;;;;198.55;35.13;;;;;;;-4.23;100.00;101694.06;5014622;28;20487;-83
2022/01/11 03:37:26;;;;;;;273.90;40.92;;;;;;;-4.25;100.00;101693.06;5013333;28;20486;-83
2022/01/11 03:39:52;;;;;;;89.53;29.90;;;;;;;-4.19;100.00;101698.63;5015115;28;20096;-83
2022/01/11 03:42:17;;;;;;;197.10;37.88;;;;;;;-4.15;100.00;101705.78;5014127;28;20390;-84
2022/01/11 03:44:42;;;;;;;128.70;31.88;;;;;;;-4.11;100.00;101699.03;5016113;28;20052;-83
2022/01/11 03:47:08;;;;;;;212.13;35.67;;;;;;;-4.15;100.00;101700.56;5014694;28;20483;-83
2022/01/11 03:49:34;;;;;;;247.35;37.55;;;;;;;-4.12;100.00;101704.19;5015656;28;20509;-83
2022/01/11 03:51:59;;;;;;;152.63;33.45;;;;;;;-4.11;100.00;101711.19;5015939;28;20076;-83
2022/01/11 03:54:28;;;;;;;135.75;34.63;;;;;;;-4.04;100.00;101702.88;5014745;28;20033;-83
2022/01/11 03:56:54;;;;;;;96.25;29.10;;;;;;;-4.06;100.00;101701.88;5016191;28;20036;-82
2022/01/11 03:59:21;;;;;;;192.10;34.97;;;;;;;-4.08;100.00;101706.13;5014114;28;20021;-83
2022/01/11 04:01:47;;;;;;;88.22;30.30;;;;;;;-4.03;100.00;101715.09;5014606;28;20018;-83
2022/01/11 04:04:13;;;;;;;116.88;30.52;;;;;;;-3.99;100.00;101711.84;5014909;28;20040;-83
2022/01/11 04:06:39;;;;;;;82.43;28.80;;;;;;;-4.05;100.00;101721.97;5015907;28;20101;-83
2022/01/11 04:09:08;;;;;;;96.75;32.45;;;;;;;-3.93;100.00;101714.78;5014446;28;20494;-83
2022/01/11 04:11:33;;;;;;;138.45;33.58;;;;;;;-3.92;100.00;101716.56;5014124;28;20021;-83
2022/01/11 04:13:59;;;;;;;328.65;43.70;;;;;;;-4.12;100.00;101709.41;5014320;28;20501;-82
2022/01/11 04:16:25;;;;;;;133.40;30.52;;;;;;;-4.14;100.00;101714.53;5015169;28;20037;-82
2022/01/11 04:18:50;;;;;;;106.82;30.92;;;;;;;-4.03;100.00;101712.50;5013732;28;20030;-83
2022/01/11 04:21:16;;;;;;;74.72;30.80;;;;;;;-3.93;100.00;101716.50;5014488;28;20113;-82
2022/01/11 04:23:41;;;;;;;187.15;34.97;;;;;;;-4.02;100.00;101722.13;5014557;28;20064;-83
2022/01/11 04:26:07;;;;;;;77.32;27.00;;;;;;;-4.04;100.00;101718.53;5016201;28;20025;-84
2022/01/11 04:28:32;;;;;;;153.60;31.17;;;;;;;-4.04;100.00;101723.75;5014361;28;20455;-83
2022/01/11 04:30:58;;;;;;;56.90;27.10;;;;;;;-3.98;100.00;101725.78;5015904;28;20029;-84
2022/01/11 04:33:24;;;;;;;236.75;34.25;;;;;;;-4.09;100.00;101726.09;5015966;28;20394;-84
2022/01/11 04:35:50;;;;;;;108.18;28.17;;;;;;;-4.05;100.00;101719.34;5014800;28;20391;-85
2022/01/11 04:38:18;;;;;;;170.77;32.13;;;;;;;-4.09;100.00;101720.88;5015999;28;20490;-84
2022/01/11 04:40:43;;;;;;;122.57;30.52;;;;;;;-4.05;100.00;101721.97;5015002;28;20036;-84
2022/01/11 04:43:08;;;;;;;81.10;28.13;;;;;;;-4.08;100.00;101727.91;5013862;28;20021;-84
2022/01/11 04:45:47;;;;;;;98.93;28.25;;;;;;;-4.09;100.00;101728.72;5015285;28;20478;-83
2022/01/11 04:48:14;;;;;;;263.95;34.25;;;;;;;-4.26;100.00;101733.03;5015245;28;20049;-84
2022/01/11 04:50:39;;;;;;;98.85;28.80;;;;;;;-4.20;100.00;101733.34;5014060;28;20022;-84
2022/01/11 04:53:05;;;;;;;119.70;29.20;;;;;;;-4.20;100.00;101730.75;5013041;28;20018;-82
2022/01/11 04:55:32;;;;;;;109.78;28.02;;;;;;;-4.25;100.00;101726.97;5014420;28;20033;-82
2022/01/11 04:57:58;;;;;;;96.60;28.67;;;;;;;-4.20;100.00;101728.13;5014768;28;20049;-83
2022/01/11 05:00:24;;;;;;;99.05;28.67;;;;;;;-4.15;100.00;101731.00;5014657;28;20398;-83
2022/01/11 05:02:49;;;;;;;94.53;27.65;;;;;;;-4.15;100.00;101725.78;5018252;28;20030;-83
2022/01/11 05:05:15;;;;;;;90.00;26.83;;;;;;;-4.14;100.00;101722.34;5018953;28;20026;-82
2022/01/11 05:07:46;;;;;;;84.40;25.17;;;;;;;-4.11;100.00;101727.75;5018541;28;20098;-81
2022/01/11 05:10:12;;;;;;;117.25;27.15;;;;;;;-4.17;100.00;101732.63;5018580;28;20129;-82
2022/01/11 05:12:38;;;;;;;118.47;27.05;;;;;;;-4.26;100.00;101733.03;5017155;28;20021;-83
2022/01/11 05:15:08;;;;;;;87.32;26.85;;;;;;;-4.24;100.00;101725.28;5017588;28;20025;-83
2022/01/11 05:17:34;;;;;;;65.93;25.67;;;;;;;-4.26;100.00;101727.81;5016742;28;20116;-83
2022/01/11 05:20:27;;;;;;;96.50;27.10;;;;;;;-4.24;100.00;101728.78;5005936;23;20504;-83
2022/01/11 05:22:52;;;;;;;98.28;26.77;;;;;;;-4.25;100.00;101724.38;4991903;28;20038;-85
2022/01/11 05:25:18;;;;;;;68.97;25.35;;;;;;;-4.25;100.00;101729.59;4981720;28;20026;-85
2022/01/11 05:27:47;;;;;;;90.72;27.17;;;;;;;-4.29;100.00;101735.47;4997134;28;20041;-84
2022/01/11 05:30:12;;;;;;;99.75;25.23;;;;;;;-4.38;100.00;101739.34;4980976;28;20475;-84
2022/01/11 05:32:38;;;;;;;71.90;26.65;;;;;;;-4.41;100.00;101741.81;4979284;28;20077;-86
2022/01/11 05:35:06;;;;;;;93.63;25.90;;;;;;;-4.47;100.00;101728.44;4979836;28;20033;-86
2022/01/11 05:37:45;;;;;;;76.72;26.23;;;;;;;-4.51;100.00;101731.69;4997092;28;20029;-85
2022/01/11 05:40:12;;;;;;;110.35;29.05;;;;;;;-4.55;100.00;101740.13;4980802;28;20030;-85
2022/01/11 05:42:38;;;;;;;86.15;27.02;;;;;;;-4.61;100.00;101735.47;4998556;28;20176;-85
2022/01/11 05:45:30;;;;;;;66.47;25.42;;;;;;;-4.58;100.00;101745.16;4986535;28;20027;-85
2022/01/11 05:47:55;;;;;;;104.75;27.23;;;;;;;-4.58;100.00;101746.06;4970874;28;20038;-85
2022/01/11 05:50:22;;;;;;;90.55;24.92;;;;;;;-4.61;100.00;101746.81;4981929;28;20020;-86
2022/01/11 05:52:49;;;;;;;66.00;23.33;;;;;;;-4.55;100.00;101747.97;4997720;28;20097;-86
2022/01/11 05:55:14;;;;;;;92.03;25.60;;;;;;;-4.60;100.00;101748.59;4981341;28;20117;-86
2022/01/11 05:57:43;;;;;;;147.52;28.60;;;;;;;-4.77;100.00;101749.38;4997561;28;20105;-85
2022/01/11 06:00:14;;;;;;;83.50;24.88;;;;;;;-4.67;100.00;101748.19;4998520;28;20022;-85
2022/01/11 06:02:46;;;;;;;123.40;26.52;;;;;;;-4.67;100.00;101751.69;4980620;28;20019;-84
2022/01/11 06:05:37;;;;;;;110.28;27.00;;;;;;;-4.66;100.00;101753.47;4999370;28;20022;-86
2022/01/11 06:08:06;;;;;;;62.33;24.55;;;;;;;-4.58;100.00;101755.59;4980668;28;20026;-85
2022/01/11 06:10:34;;;;;;;92.78;26.33;;;;;;;-4.63;100.00;101761.47;4997173;28;20022;-86
2022/01/11 06:13:03;;;;;;;202.55;30.98;;;;;;;-4.72;100.00;101764.47;4982192;28;20034;-83
2022/01/11 06:15:34;;;;;;;57.70;25.50;;;;;;;-4.73;100.00;101774.78;4980888;28;20030;-86
2022/01/11 06:18:29;;;;;;;138.95;28.52;;;;;;;-4.72;100.00;101771.38;4981328;28;20050;-84
2022/01/11 06:21:07;;;;;;;184.00;29.88;;;;;;;-4.78;100.00;101776.22;4998420;28;20379;-84
2022/01/11 06:23:32;;;;;;;185.77;30.73;;;;;;;-4.75;100.00;101774.72;4983995;28;20431;-86
2022/01/11 06:26:06;;;;;;;136.73;27.83;;;;;;;-4.67;100.00;101776.84;4997927;28;20153;-85
2022/01/11 06:28:32;;;;;;;123.55;27.70;;;;;;;-4.76;100.00;101782.44;4998433;28;20022;-86
2022/01/11 06:31:00;;;;;;;54.20;23.80;;;;;;;-4.71;100.00;101781.88;4980213;28;20384;-85
2022/01/11 06:33:35;;;;;;;178.48;29.30;;;;;;;-4.71;100.00;101787.09;4980491;28;20060;-86
2022/01/11 06:36:03;;;;;;;186.43;33.70;;;;;;;-4.62;100.00;101786.75;4981192;28;20026;-84
2022/01/11 06:38:29;;;;;;;65.53;26.55;;;;;;;-4.58;100.00;101786.88;4996708;28;20027;-85
2022/01/11 06:40:54;;;;;;;88.95;27.92;;;;;;;-4.48;100.00;101789.22;4979146;28;20026;-86
2022/01/11 06:43:19;;;;;;;64.32;23.52;;;;;;;-4.47;100.00;101779.69;4978417;28;20479;-86
2022/01/11 06:45:45;;;;;;;316.55;38.00;;;;;;;-4.52;100.00;101787.25;4995787;28;20062;-85
2022/01/11 06:48:11;;;;;;;183.85;29.15;;;;;;;-4.48;100.00;101778.78;4995581;28;20078;-85
2022/01/11 06:50:39;;;;;;;103.28;25.02;;;;;;;-4.37;100.00;101787.22;4979364;28;20037;-84
2022/01/11 06:53:04;;;;;;;135.75;25.60;;;;;;;-4.41;100.00;101786.16;4997119;28;20054;-84
2022/01/11 06:55:30;;;;;;;150.02;28.05;;;;;;;-4.42;100.00;101791.28;4996279;28;20037;-84
2022/01/11 06:58:08;;;;;;;152.88;27.13;;;;;;;-4.45;100.00;101789.38;4978896;28;20019;-84
2022/01/11 07:00:33;;;;;;;85.90;24.48;;;;;;;-4.44;100.00;101800.72;4983069;28;20027;-83
2022/01/11 07:02:59;;;;;;;76.28;22.98;;;;;;;-4.42;100.00;101794.78;4978182;28;20026;-87
2022/01/11 07:05:24;;;;;;;69.18;23.10;;;;;;;-4.50;100.00;101801.25;4978055;28;20109;-86
2022/01/11 07:07:58;;;;;;;98.50;23.77;;;;;;;-4.55;100.00;101805.31;4978057;28;20160;-87
2022/01/11 07:10:23;;;;;;;82.00;22.50;;;;;;;-4.58;100.00;101805.13;4978700;28;20042;-86
2022/01/11 07:12:49;;;;;;;85.20;23.75;;;;;;;-4.54;100.00;101812.34;4977937;28;20033;-87
2022/01/11 07:15:14;;;;;;;71.22;22.52;;;;;;;-4.56;100.00;101806.16;4995393;28;20037;-87
2022/01/11 07:17:41;;;;;;;52.75;21.48;;;;;;;-4.55;100.00;101813.13;4977930;28;20026;-88
2022/01/11 07:20:07;;;;;;;86.43;22.20;;;;;;;-4.60;100.00;101813.78;4977634;28;20027;-87
2022/01/11 07:22:33;;;;;;;92.55;21.35;;;;;;;-4.65;100.00;101822.16;4977592;28;20066;-87
2022/01/11 07:24:58;;;;;;;74.75;21.15;;;;;;;-4.73;100.00;101819.09;4977005;28;20049;-87
2022/01/11 07:27:24;;;;;;;65.53;21.80;;;;;;;-4.77;100.00;101823.25;4977944;28;20022;-87
2022/01/11 07:29:49;;;;;;;81.22;22.20;;;;;;;-4.75;100.00;101820.72;4995275;28;20029;-87
2022/01/11 07:32:15;;;;;;;141.98;24.05;;;;;;;-4.84;100.00;101821.97;4995004;28;20486;-87
2022/01/11 07:34:41;;;;;;;59.35;20.85;;;;;;;-4.78;100.00;101830.97;4977557;28;20032;-86
2022/01/11 07:37:06;;;;;;;63.45;20.95;;;;;;;-4.76;100.00;101829.34;4977562;28;20026;-87
2022/01/11 07:39:32;;;;;;;95.75;23.08;;;;;;;-4.86;100.00;101834.03;4995185;28;20026;-86
2022/01/11 07:41:57;;;;;;;65.30;20.75;;;;;;;-4.84;100.00;101837.63;4978039;28;20602;-87
2022/01/11 07:44:23;;;;;;;85.30;23.15;;;;;;;-4.83;100.00;101829.00;4977469;28;20022;-87
2022/01/11 07:46:48;;;;;;;62.28;21.20;;;;;;;-4.83;100.00;101830.69;4977299;28;20030;-86
2022/01/11 07:49:14;;;;;;;101.45;21.90;;;;;;;-4.88;100.00;101838.25;4977779;28;20495;-87
2022/01/11 07:51:40;;;;;;;55.38;19.17;;;;;;;-4.90;100.00;101842.50;4994834;28;20514;-86
2022/01/11 07:54:06;;;;;;;56.42;21.08;;;;;;;-4.89;100.00;101840.75;4977568;28;20050;-87
2022/01/11 07:56:31;;;;;;;86.85;21.88;;;;;;;-4.90;100.00;101844.19;4977189;28;20435;-86
2022/01/11 07:58:57;;;;;;;85.88;21.67;;;;;;;-4.93;100.00;101844.91;4994613;28;20050;-86
2022/01/11 08:01:22;;;;;;;88.85;21.38;;;;;;;-4.96;100.00;101857.75;4977786;28;20080;-87
2022/01/11 08:03:47;;;;;;;77.47;20.73;;;;;;;-4.93;100.00;101858.84;4994538;28;20026;-87
2022/01/11 08:06:13;;;;;;;59.08;22.55;;;;;;;-4.90;100.00;101855.53;4977234;28;20423;-86
2022/01/11 08:08:38;;;;;;;95.05;21.60;;;;;;;-4.90;100.00;101847.69;4976881;28;20394;-87
2022/01/11 08:11:04;;;;;;;111.38;23.20;;;;;;;-4.86;100.00;101854.88;4994801;28;20029;-87
2022/01/11 08:13:29;;;;;;;121.78;24.58;;;;;;;-4.86;100.00;101854.88;4976814;28;20567;-86
2022/01/11 08:15:55;;;;;;;60.63;21.70;;;;;;;-4.84;100.00;101847.13;4994700;28;20030;-84
2022/01/11 08:18:20;;;;;;;45.30;20.13;;;;;;;-4.82;100.00;101845.53;4994175;28;20053;-87
2022/01/11 08:20:47;;;;;;;52.40;21.10;;;;;;;-4.83;100.00;101849.84;4976959;28;20031;-87
2022/01/11 08:23:13;;;;;;;57.55;20.42;;;;;;;-4.77;100.00;101853.63;4994422;28;20030;-86
2022/01/11 08:25:38;;;;;;;49.75;20.23;;;;;;;-4.74;100.00;101861.63;4977614;28;20420;-87
2022/01/11 08:28:04;;;;;;;70.72;22.08;;;;;;;-4.74;100.00;101853.81;4994307;28;20519;-87
2022/01/11 08:30:34;;;;;;;72.60;22.58;;;;;;;-4.73;100.00;101851.28;4977718;28;20018;-87
2022/01/11 08:33:00;;;;;;;70.55;22.90;;;;;;;-4.69;100.00;101847.16;4977365;28;20551;-87
2022/01/11 08:35:26;;;;;;;55.90;22.15;;;;;;;-4.65;100.00;101849.13;4977174;28;20030;-87
2022/01/11 08:37:51;;;;;;;52.83;22.17;;;;;;;-4.57;100.00;101853.88;4997969;28;20415;-86
2022/01/11 08:40:26;;;;;;;51.88;23.80;;;;;;;-4.53;100.00;101853.22;4998054;28;20025;-87
2022/01/11 08:42:52;;;;;;;45.55;21.65;;;;;;;-4.47;100.00;101853.59;4999252;28;20414;-87
2022/01/11 08:45:20;;;;;;;54.22;23.50;;;;;;;-4.38;100.00;101850.63;4999212;28;20515;-87
2022/01/11 08:47:45;;;;;;;67.47;22.25;;;;;;;-4.43;100.00;101858.16;4981702;28;20033;-87
2022/01/11 08:50:12;;;;;;;53.78;21.02;;;;;;;-4.45;100.00;101856.28;4983398;28;20026;-87
2022/01/11 08:52:38;;;;;;;44.15;22.33;;;;;;;-4.32;100.00;101853.56;4982300;28;20468;-87
2022/01/11 08:55:04;;;;;;;44.10;22.70;;;;;;;-4.17;100.00;101848.31;4998209;28;20029;-87
2022/01/11 08:57:30;;;;;;;41.85;20.48;;;;;;;-4.15;100.00;101844.06;4980474;28;20022;-87
2022/01/11 08:59:55;;;;;;;48.95;23.00;;;;;;;-4.11;100.00;101846.88;4980381;28;20033;-88
2022/01/11 09:02:21;;;;;;;56.03;22.35;;;;;;;-4.07;100.00;101844.50;4997762;28;20391;-88
2022/01/11 09:04:47;;;;;;;55.03;24.42;;;;;;;-3.98;100.00;101848.44;4980419;28;20419;-88
2022/01/11 09:07:13;;;;;;;49.70;22.92;;;;;;;-3.83;100.00;101843.16;4980310;28;20080;-87
2022/01/11 09:09:38;;;;;;;45.10;22.67;;;;;;;-3.73;100.00;101845.47;4997391;28;20105;-87
2022/01/11 09:12:06;;;;;;;52.55;24.90;;;;;;;-3.65;100.00;101847.59;4979951;28;20022;-88
2022/01/11 09:14:33;;;;;;;47.47;22.90;;;;;;;-3.58;100.00;101839.25;4979925;28;20109;-88
2022/01/11 09:17:01;;;;;;;51.10;24.60;;;;;;;-3.60;100.00;101847.03;4979973;28;20030;-88
2022/01/11 09:19:27;;;;;;;44.70;21.17;;;;;;;-3.68;100.00;101858.75;4997058;28;20510;-88
2022/01/11 09:21:52;;;;;;;45.78;21.88;;;;;;;-3.68;100.00;101858.75;4980492;28;20027;-89
2022/01/11 09:24:19;;;;;;;40.65;21.23;;;;;;;-3.45;100.00;101863.47;4997403;28;20081;-88
2022/01/11 09:26:46;;;;;;;53.50;24.83;;;;;;;-3.34;100.00;101854.47;4980277;28;20030;-88
2022/01/11 09:29:11;;;;;;;53.05;24.63;;;;;;;-3.21;100.00;101855.09;4998710;28;20364;-87
2022/01/11 09:31:37;;;;;;;52.10;24.90;;;;;;;-3.07;100.00;101861.06;4981768;28;20029;-88
2022/01/11 09:34:02;;;;;;;51.95;23.80;;;;;;;-2.97;100.00;101871.19;4998473;28;20080;-88
2022/01/11 09:36:29;;;;;;;47.53;22.08;;;;;;;-2.88;100.00;101870.72;4998487;28;20041;-89
2022/01/11 09:38:55;;;;;;;47.65;23.05;;;;;;;-2.79;100.00;101874.63;4980202;28;20129;-88
2022/01/11 09:41:21;;;;;;;53.90;24.00;;;;;;;-2.73;100.00;101875.84;4980296;28;20026;-89
2022/01/11 09:43:52;;;;;;;48.22;23.90;;;;;;;-2.64;100.00;101870.19;4997097;28;20022;-88
2022/01/11 09:46:17;;;;;;;50.53;23.35;;;;;;;-2.49;100.00;101869.16;4980424;28;20026;-89
2022/01/11 09:48:45;;;;;;;56.30;25.73;;;;;;;-2.38;100.00;101870.59;4978766;28;20121;-90
2022/01/11 09:51:10;;;;;;;52.50;25.08;;;;;;;-2.33;100.00;101876.03;4979388;28;20030;-89
2022/01/11 09:53:36;;;;;;;56.95;25.95;;;;;;;-2.27;100.00;101875.47;4996982;28;20468;-89
2022/01/11 09:56:07;;;;;;;56.97;26.77;;;;;;;-2.17;100.00;101875.09;4979322;28;20030;-89
2022/01/11 09:58:33;;;;;;;60.08;28.00;;;;;;;-2.06;100.00;101874.72;4996580;28;20026;-90
2022/01/11 10:00:59;;;;;;;66.60;28.80;;;;;;;-1.97;100.00;101859.41;4996389;28;20041;-90
2022/01/11 10:03:25;;;;;;;68.22;27.90;;;;;;;-1.81;100.00;101860.16;4978992;28;20026;-90
2022/01/11 10:05:51;;;;;;;67.07;28.77;;;;;;;-1.72;100.00;101859.66;4979106;28;20026;-88
2022/01/11 10:08:26;;;;;;;71.35;29.73;;;;;;;-1.59;100.00;101866.38;4979555;28;20492;-89
2022/01/11 10:10:52;;;;;;;70.22;29.63;;;;;;;-1.50;100.00;101851.09;4996293;28;20026;-89
2022/01/11 10:13:39;;;;;;;69.90;30.35;;;;;;;-1.37;100.00;101856.88;4996379;28;20156;-89
2022/01/11 10:16:23;;;;;;;64.75;29.58;;;;;;;-1.27;100.00;101858.19;4978902;28;20026;-89
2022/01/11 10:18:51;;;;;;;60.63;28.65;;;;;;;-1.19;100.00;101856.81;4978871;28;20034;-89
2022/01/11 10:21:43;;;;;;;63.67;27.02;;;;;;;-0.97;100.00;101862.97;4979485;28;20066;-90
2022/01/11 10:24:25;;;;;;;65.35;29.20;;;;;;;-0.82;100.00;101853.94;4992411;28;20046;-90
2022/01/11 10:26:53;;;;;;;62.45;28.77;;;;;;;-0.63;100.00;101855.63;4996458;28;20029;-90
2022/01/11 10:29:28;;;;;;;50.47;26.60;;;;;;;-0.46;100.00;101855.44;4996448;28;20073;-89
2022/01/11 10:31:54;;;;;;;59.28;26.30;;;;;;;-0.30;100.00;101866.56;4996525;28;20018;-87
2022/01/11 10:34:34;;;;;;;47.83;23.67;;;;;;;-0.15;100.00;101861.94;4978811;28;20080;-89
2022/01/11 10:37:03;;;;;;;53.55;24.60;;;;;;;0.05;100.00;101858.31;4995770;28;20054;-87
2022/01/11 10:39:41;;;;;;;46.05;24.60;;;;;;;0.26;100.00;101858.22;4995990;28;20030;-86
2022/01/11 10:42:24;;;;;;;46.15;23.30;;;;;;;0.50;100.00;101860.00;4979161;28;20026;-86
2022/01/11 10:44:53;;;;;;;45.80;23.88;;;;;;;0.67;100.00;101859.75;4995656;28;20031;-87
2022/01/11 10:47:23;;;;;;;39.92;21.80;;;;;;;0.85;100.00;101866.50;4995799;28;20391;-87
2022/01/11 10:49:50;;;;;;;39.00;21.23;;;;;;;1.03;100.00;101868.00;4978419;28;20088;-87
2022/01/11 10:55:38;;;;;;;35.95;18.92;;;;;;;1.53;100.00;101864.41;4996439;28;20122;-87
2022/01/11 10:58:06;;;;;;;32.08;18.90;;;;;;;1.27;100.00;101867.03;4995251;28;20062;-87
2022/01/11 11:00:40;;;;;;;35.17;20.60;;;;;;;0.83;100.00;101873.41;4977461;28;20026;-85
2022/01/11 11:03:14;;;;;;;;;;;;;;;0.78;100.00;101871.53;4978654;28;20546;-87
2022/01/11 11:05:45;;;;;;;36.23;19.87;;;;;;;0.68;100.00;101873.75;4978363;28;20318;-88